sensor_id;sensor_type;location;lat;lon;timestamp;temperature;humidity
79187;SHT31;68762;51.980;5.646;2023-05-14T00:01:47;18.8;50.7
79187;SHT31;68762;51.980;5.646;2023-05-14T00:04:17;18.8;51.2
79187;SHT31;68762;51.980;5.646;2023-05-14T00:06:46;18.7;50.9
79187;SHT31;68762;51.980;5.646;2023-05-14T00:09:15;18.6;51.3
79187;SHT31;68762;51.980;5.646;2023-05-14T00:11:43;18.6;50.8
79187;SHT31;68762;51.980;5.646;2023-05-14T00:14:12;18.5;51.5
79187;SHT31;68762;51.980;5.646;2023-05-14T00:16:40;18.5;51.5
79187;SHT31;68762;51.980;5.646;2023-05-14T00:19:09;18.4;51.8
79187;SHT31;68762;51.980;5.646;2023-05-14T00:21:37;18.4;51.9
79187;SHT31;68762;51.980;5.646;2023-05-14T00:24:06;18.3;51.7
79187;SHT31;68762;51.980;5.646;2023-05-14T00:26:34;18.3;51.9
79187;SHT31;68762;51.980;5.646;2023-05-14T00:29:03;18.2;52.3
79187;SHT31;68762;51.980;5.646;2023-05-14T00:31:32;18.2;53.0
79187;SHT31;68762;51.980;5.646;2023-05-14T00:34:00;18.2;53.5
79187;SHT31;68762;51.980;5.646;2023-05-14T00:36:29;18.1;53.7
79187;SHT31;68762;51.980;5.646;2023-05-14T00:38:58;18.1;53.8
79187;SHT31;68762;51.980;5.646;2023-05-14T00:41:28;18.0;53.2
79187;SHT31;68762;51.980;5.646;2023-05-14T00:43:57;18.0;54.2
79187;SHT31;68762;51.980;5.646;2023-05-14T00:46:26;18.0;53.4
79187;SHT31;68762;51.980;5.646;2023-05-14T00:48:55;17.9;53.9
79187;SHT31;68762;51.980;5.646;2023-05-14T00:51:26;17.9;55.0
79187;SHT31;68762;51.980;5.646;2023-05-14T00:53:54;17.9;54.7
79187;SHT31;68762;51.980;5.646;2023-05-14T00:56:23;17.8;54.7
79187;SHT31;68762;51.980;5.646;2023-05-14T00:58:52;17.8;55.3
79187;SHT31;68762;51.980;5.646;2023-05-14T01:01:20;17.8;54.5
79187;SHT31;68762;51.980;5.646;2023-05-14T01:03:49;17.8;55.1
79187;SHT31;68762;51.980;5.646;2023-05-14T01:06:27;17.8;54.6
79187;SHT31;68762;51.980;5.646;2023-05-14T01:09:04;17.8;54.8
79187;SHT31;68762;51.980;5.646;2023-05-14T01:11:41;17.7;55.5
79187;SHT31;68762;51.980;5.646;2023-05-14T01:14:19;17.7;55.4
79187;SHT31;68762;51.980;5.646;2023-05-14T01:16:52;17.7;55.2
79187;SHT31;68762;51.980;5.646;2023-05-14T01:19:32;17.7;55.0
79187;SHT31;68762;51.980;5.646;2023-05-14T01:22:01;17.7;55.2
79187;SHT31;68762;51.980;5.646;2023-05-14T01:24:30;17.6;55.2
79187;SHT31;68762;51.980;5.646;2023-05-14T01:27:03;17.6;55.8
79187;SHT31;68762;51.980;5.646;2023-05-14T01:29:37;17.6;55.2
79187;SHT31;68762;51.980;5.646;2023-05-14T01:32:09;17.6;55.6
79187;SHT31;68762;51.980;5.646;2023-05-14T01:34:38;17.5;55.4
79187;SHT31;68762;51.980;5.646;2023-05-14T01:37:12;17.5;55.7
79187;SHT31;68762;51.980;5.646;2023-05-14T01:39:43;17.5;57.4
79187;SHT31;68762;51.980;5.646;2023-05-14T01:42:12;17.5;57.0
79187;SHT31;68762;51.980;5.646;2023-05-14T01:44:42;17.4;57.0
79187;SHT31;68762;51.980;5.646;2023-05-14T01:47:10;17.4;56.8
79187;SHT31;68762;51.980;5.646;2023-05-14T01:49:39;17.4;55.9
79187;SHT31;68762;51.980;5.646;2023-05-14T01:52:07;17.3;56.5
79187;SHT31;68762;51.980;5.646;2023-05-14T01:54:38;17.3;56.2
79187;SHT31;68762;51.980;5.646;2023-05-14T01:57:08;17.3;55.9
79187;SHT31;68762;51.980;5.646;2023-05-14T01:59:37;17.2;55.9
79187;SHT31;68762;51.980;5.646;2023-05-14T02:02:05;17.2;56.1
79187;SHT31;68762;51.980;5.646;2023-05-14T02:04:34;17.2;56.6
79187;SHT31;68762;51.980;5.646;2023-05-14T02:07:02;17.1;56.3
79187;SHT31;68762;51.980;5.646;2023-05-14T02:09:31;17.1;56.7
79187;SHT31;68762;51.980;5.646;2023-05-14T02:11:59;17.1;57.1
79187;SHT31;68762;51.980;5.646;2023-05-14T02:14:28;17.0;57.5
79187;SHT31;68762;51.980;5.646;2023-05-14T02:16:56;17.0;56.7
79187;SHT31;68762;51.980;5.646;2023-05-14T02:19:25;17.0;56.9
79187;SHT31;68762;51.980;5.646;2023-05-14T02:21:55;16.9;57.2
79187;SHT31;68762;51.980;5.646;2023-05-14T02:24:24;16.9;56.8
79187;SHT31;68762;51.980;5.646;2023-05-14T02:26:52;16.9;56.9
79187;SHT31;68762;51.980;5.646;2023-05-14T02:29:21;16.8;57.3
79187;SHT31;68762;51.980;5.646;2023-05-14T02:31:49;16.8;57.1
79187;SHT31;68762;51.980;5.646;2023-05-14T02:34:18;16.8;57.8
79187;SHT31;68762;51.980;5.646;2023-05-14T02:36:47;16.7;57.5
79187;SHT31;68762;51.980;5.646;2023-05-14T02:39:15;16.7;58.2
79187;SHT31;68762;51.980;5.646;2023-05-14T02:41:43;16.6;57.4
79187;SHT31;68762;51.980;5.646;2023-05-14T02:44:12;16.6;57.3
79187;SHT31;68762;51.980;5.646;2023-05-14T02:46:40;16.6;58.0
79187;SHT31;68762;51.980;5.646;2023-05-14T02:49:09;16.5;58.1
79187;SHT31;68762;51.980;5.646;2023-05-14T02:51:37;16.5;59.4
79187;SHT31;68762;51.980;5.646;2023-05-14T02:54:06;16.5;58.2
79187;SHT31;68762;51.980;5.646;2023-05-14T02:56:35;16.4;59.2
79187;SHT31;68762;51.980;5.646;2023-05-14T02:59:03;16.4;58.9
79187;SHT31;68762;51.980;5.646;2023-05-14T03:01:32;16.4;59.1
79187;SHT31;68762;51.980;5.646;2023-05-14T03:04:01;16.3;59.0
79187;SHT31;68762;51.980;5.646;2023-05-14T03:06:29;16.3;59.1
79187;SHT31;68762;51.980;5.646;2023-05-14T03:08:58;16.3;59.1
79187;SHT31;68762;51.980;5.646;2023-05-14T03:11:26;16.3;59.5
79187;SHT31;68762;51.980;5.646;2023-05-14T03:13:55;16.3;59.1
79187;SHT31;68762;51.980;5.646;2023-05-14T03:16:25;16.2;58.7
79187;SHT31;68762;51.980;5.646;2023-05-14T03:18:54;16.2;59.2
79187;SHT31;68762;51.980;5.646;2023-05-14T03:21:23;16.2;59.4
79187;SHT31;68762;51.980;5.646;2023-05-14T03:23:51;16.1;59.4
79187;SHT31;68762;51.980;5.646;2023-05-14T03:26:22;16.1;59.3
79187;SHT31;68762;51.980;5.646;2023-05-14T03:28:50;16.1;59.5
79187;SHT31;68762;51.980;5.646;2023-05-14T03:31:19;16.1;59.1
79187;SHT31;68762;51.980;5.646;2023-05-14T03:33:49;16.1;59.2
79187;SHT31;68762;51.980;5.646;2023-05-14T03:36:18;16.0;59.4
79187;SHT31;68762;51.980;5.646;2023-05-14T03:38:46;16.0;59.3
79187;SHT31;68762;51.980;5.646;2023-05-14T03:41:17;16.0;59.4
79187;SHT31;68762;51.980;5.646;2023-05-14T03:43:47;16.0;59.3
79187;SHT31;68762;51.980;5.646;2023-05-14T03:46:15;16.0;59.5
79187;SHT31;68762;51.980;5.646;2023-05-14T03:48:44;15.9;59.8
79187;SHT31;68762;51.980;5.646;2023-05-14T03:51:12;15.9;59.2
79187;SHT31;68762;51.980;5.646;2023-05-14T03:53:41;15.9;59.7
79187;SHT31;68762;51.980;5.646;2023-05-14T03:56:09;15.9;60.0
79187;SHT31;68762;51.980;5.646;2023-05-14T03:58:37;15.9;59.2
79187;SHT31;68762;51.980;5.646;2023-05-14T04:01:06;15.8;60.5
79187;SHT31;68762;51.980;5.646;2023-05-14T04:03:34;15.8;59.8
79187;SHT31;68762;51.980;5.646;2023-05-14T04:06:03;15.8;60.4
79187;SHT31;68762;51.980;5.646;2023-05-14T04:08:31;15.8;61.0
79187;SHT31;68762;51.980;5.646;2023-05-14T04:11:00;15.7;60.9
79187;SHT31;68762;51.980;5.646;2023-05-14T04:13:28;15.7;60.8
79187;SHT31;68762;51.980;5.646;2023-05-14T04:15:58;15.7;60.7
79187;SHT31;68762;51.980;5.646;2023-05-14T04:18:26;15.7;60.2
79187;SHT31;68762;51.980;5.646;2023-05-14T04:20:56;15.7;61.0
79187;SHT31;68762;51.980;5.646;2023-05-14T04:23:24;15.7;60.7
79187;SHT31;68762;51.980;5.646;2023-05-14T04:25:53;15.6;60.7
79187;SHT31;68762;51.980;5.646;2023-05-14T04:28:21;15.6;61.2
79187;SHT31;68762;51.980;5.646;2023-05-14T04:30:50;15.6;61.1
79187;SHT31;68762;51.980;5.646;2023-05-14T04:33:18;15.6;60.9
79187;SHT31;68762;51.980;5.646;2023-05-14T04:35:49;15.6;61.7
79187;SHT31;68762;51.980;5.646;2023-05-14T04:38:17;15.6;61.2
79187;SHT31;68762;51.980;5.646;2023-05-14T04:40:45;15.6;61.7
79187;SHT31;68762;51.980;5.646;2023-05-14T04:43:14;15.6;61.4
79187;SHT31;68762;51.980;5.646;2023-05-14T04:45:43;15.6;61.3
79187;SHT31;68762;51.980;5.646;2023-05-14T04:48:11;15.6;61.5
79187;SHT31;68762;51.980;5.646;2023-05-14T04:50:39;15.6;61.8
79187;SHT31;68762;51.980;5.646;2023-05-14T04:53:09;15.6;61.6
79187;SHT31;68762;51.980;5.646;2023-05-14T04:55:38;15.6;62.2
79187;SHT31;68762;51.980;5.646;2023-05-14T04:58:07;15.6;62.5
79187;SHT31;68762;51.980;5.646;2023-05-14T05:00:36;15.6;62.3
79187;SHT31;68762;51.980;5.646;2023-05-14T05:03:05;15.6;61.6
79187;SHT31;68762;51.980;5.646;2023-05-14T05:05:33;15.6;62.3
79187;SHT31;68762;51.980;5.646;2023-05-14T05:08:02;15.6;62.0
79187;SHT31;68762;51.980;5.646;2023-05-14T05:10:31;15.6;61.4
79187;SHT31;68762;51.980;5.646;2023-05-14T05:13:00;15.6;61.2
79187;SHT31;68762;51.980;5.646;2023-05-14T05:15:28;15.6;61.6
79187;SHT31;68762;51.980;5.646;2023-05-14T05:17:57;15.6;62.1
79187;SHT31;68762;51.980;5.646;2023-05-14T05:20:25;15.6;62.5
79187;SHT31;68762;51.980;5.646;2023-05-14T05:22:54;15.6;62.2
79187;SHT31;68762;51.980;5.646;2023-05-14T05:25:23;15.6;62.8
79187;SHT31;68762;51.980;5.646;2023-05-14T05:27:51;15.6;62.2
79187;SHT31;68762;51.980;5.646;2023-05-14T05:30:20;15.6;62.7
79187;SHT31;68762;51.980;5.646;2023-05-14T05:32:48;15.6;63.2
79187;SHT31;68762;51.980;5.646;2023-05-14T05:35:17;15.7;62.8
79187;SHT31;68762;51.980;5.646;2023-05-14T05:37:46;15.7;63.1
79187;SHT31;68762;51.980;5.646;2023-05-14T05:40:14;15.8;62.9
79187;SHT31;68762;51.980;5.646;2023-05-14T05:42:43;15.8;63.1
79187;SHT31;68762;51.980;5.646;2023-05-14T05:45:11;15.9;62.6
79187;SHT31;68762;51.980;5.646;2023-05-14T05:47:40;15.9;63.3
79187;SHT31;68762;51.980;5.646;2023-05-14T05:50:09;15.9;61.8
79187;SHT31;68762;51.980;5.646;2023-05-14T05:52:38;16.0;62.6
79187;SHT31;68762;51.980;5.646;2023-05-14T05:55:08;16.0;62.7
79187;SHT31;68762;51.980;5.646;2023-05-14T05:57:37;16.1;64.0
79187;SHT31;68762;51.980;5.646;2023-05-14T06:00:06;16.1;62.8
79187;SHT31;68762;51.980;5.646;2023-05-14T06:02:40;16.2;61.4
79187;SHT31;68762;51.980;5.646;2023-05-14T06:05:09;16.2;61.5
79187;SHT31;68762;51.980;5.646;2023-05-14T06:07:38;16.3;61.5
79187;SHT31;68762;51.980;5.646;2023-05-14T06:10:07;16.3;61.0
79187;SHT31;68762;51.980;5.646;2023-05-14T06:12:36;16.3;61.1
79187;SHT31;68762;51.980;5.646;2023-05-14T06:15:05;16.3;61.3
79187;SHT31;68762;51.980;5.646;2023-05-14T06:17:34;16.4;61.5
79187;SHT31;68762;51.980;5.646;2023-05-14T06:20:03;16.4;61.5
79187;SHT31;68762;51.980;5.646;2023-05-14T06:22:33;16.4;61.7
79187;SHT31;68762;51.980;5.646;2023-05-14T06:25:02;16.4;62.1
79187;SHT31;68762;51.980;5.646;2023-05-14T06:27:31;16.5;62.0
79187;SHT31;68762;51.980;5.646;2023-05-14T06:30:00;16.5;62.6
79187;SHT31;68762;51.980;5.646;2023-05-14T06:32:29;16.6;61.9
79187;SHT31;68762;51.980;5.646;2023-05-14T06:34:57;16.6;61.6
79187;SHT31;68762;51.980;5.646;2023-05-14T06:37:26;16.7;62.5
79187;SHT31;68762;51.980;5.646;2023-05-14T06:39:54;16.8;62.7
79187;SHT31;68762;51.980;5.646;2023-05-14T06:42:23;16.8;62.0
79187;SHT31;68762;51.980;5.646;2023-05-14T06:44:53;16.9;62.0
79187;SHT31;68762;51.980;5.646;2023-05-14T06:47:22;17.0;61.7
79187;SHT31;68762;51.980;5.646;2023-05-14T06:49:50;17.1;60.6
79187;SHT31;68762;51.980;5.646;2023-05-14T06:52:19;17.2;60.5
79187;SHT31;68762;51.980;5.646;2023-05-14T06:54:47;17.3;61.5
79187;SHT31;68762;51.980;5.646;2023-05-14T06:57:16;17.4;61.7
79187;SHT31;68762;51.980;5.646;2023-05-14T06:59:44;17.6;61.1
79187;SHT31;68762;51.980;5.646;2023-05-14T07:02:13;17.8;58.7
79187;SHT31;68762;51.980;5.646;2023-05-14T07:04:41;17.9;59.3
79187;SHT31;68762;51.980;5.646;2023-05-14T07:07:10;18.1;60.8
79187;SHT31;68762;51.980;5.646;2023-05-14T07:09:40;18.4;58.3
79187;SHT31;68762;51.980;5.646;2023-05-14T07:12:09;18.6;57.6
79187;SHT31;68762;51.980;5.646;2023-05-14T07:14:37;18.9;56.9
79187;SHT31;68762;51.980;5.646;2023-05-14T07:17:06;19.1;55.3
79187;SHT31;68762;51.980;5.646;2023-05-14T07:19:35;19.2;56.6
79187;SHT31;68762;51.980;5.646;2023-05-14T07:22:03;19.4;55.5
79187;SHT31;68762;51.980;5.646;2023-05-14T07:24:32;19.5;55.6
79187;SHT31;68762;51.980;5.646;2023-05-14T07:27:00;19.6;54.1
79187;SHT31;68762;51.980;5.646;2023-05-14T07:29:29;19.7;56.1
79187;SHT31;68762;51.980;5.646;2023-05-14T07:32:02;19.9;55.4
79187;SHT31;68762;51.980;5.646;2023-05-14T07:34:31;20.2;53.9
79187;SHT31;68762;51.980;5.646;2023-05-14T07:37:00;20.4;54.1
79187;SHT31;68762;51.980;5.646;2023-05-14T07:39:28;20.6;52.9
79187;SHT31;68762;51.980;5.646;2023-05-14T07:41:57;20.8;52.4
79187;SHT31;68762;51.980;5.646;2023-05-14T07:44:25;20.9;50.5
79187;SHT31;68762;51.980;5.646;2023-05-14T07:46:54;21.0;53.3
79187;SHT31;68762;51.980;5.646;2023-05-14T07:49:22;21.1;53.5
79187;SHT31;68762;51.980;5.646;2023-05-14T07:51:51;21.4;50.5
79187;SHT31;68762;51.980;5.646;2023-05-14T07:54:19;21.6;51.3
79187;SHT31;68762;51.980;5.646;2023-05-14T07:56:49;21.8;52.1
79187;SHT31;68762;51.980;5.646;2023-05-14T07:59:17;22.1;49.5
79187;SHT31;68762;51.980;5.646;2023-05-14T08:01:45;22.4;50.6
79187;SHT31;68762;51.980;5.646;2023-05-14T08:04:14;22.8;52.9
79187;SHT31;68762;51.980;5.646;2023-05-14T08:06:45;23.2;48.6
79187;SHT31;68762;51.980;5.646;2023-05-14T08:09:13;23.6;47.4
79187;SHT31;68762;51.980;5.646;2023-05-14T08:11:42;23.9;47.2
79187;SHT31;68762;51.980;5.646;2023-05-14T08:14:11;24.1;45.4
79187;SHT31;68762;51.980;5.646;2023-05-14T08:16:41;24.3;44.9
79187;SHT31;68762;51.980;5.646;2023-05-14T08:19:11;24.4;45.8
79187;SHT31;68762;51.980;5.646;2023-05-14T08:21:40;24.6;45.3
79187;SHT31;68762;51.980;5.646;2023-05-14T08:24:08;24.7;45.5
79187;SHT31;68762;51.980;5.646;2023-05-14T08:26:37;24.9;45.1
79187;SHT31;68762;51.980;5.646;2023-05-14T08:29:05;25.0;44.6
79187;SHT31;68762;51.980;5.646;2023-05-14T08:31:34;25.1;43.1
79187;SHT31;68762;51.980;5.646;2023-05-14T08:34:02;25.2;43.5
79187;SHT31;68762;51.980;5.646;2023-05-14T08:36:31;25.2;43.6
79187;SHT31;68762;51.980;5.646;2023-05-14T08:39:00;25.2;42.8
79187;SHT31;68762;51.980;5.646;2023-05-14T08:41:29;25.3;43.2
79187;SHT31;68762;51.980;5.646;2023-05-14T08:44:06;25.3;43.2
79187;SHT31;68762;51.980;5.646;2023-05-14T08:46:37;25.3;41.8
79187;SHT31;68762;51.980;5.646;2023-05-14T08:49:17;25.3;42.7
79187;SHT31;68762;51.980;5.646;2023-05-14T08:51:48;25.3;42.6
79187;SHT31;68762;51.980;5.646;2023-05-14T08:54:17;25.3;42.2
79187;SHT31;68762;51.980;5.646;2023-05-14T08:56:50;25.2;44.1
79187;SHT31;68762;51.980;5.646;2023-05-14T08:59:19;25.2;43.0
79187;SHT31;68762;51.980;5.646;2023-05-14T09:01:51;25.2;43.0
79187;SHT31;68762;51.980;5.646;2023-05-14T09:04:22;25.2;44.5
79187;SHT31;68762;51.980;5.646;2023-05-14T09:06:52;25.2;44.6
79187;SHT31;68762;51.980;5.646;2023-05-14T09:09:22;25.2;43.1
79187;SHT31;68762;51.980;5.646;2023-05-14T09:11:51;25.2;44.8
79187;SHT31;68762;51.980;5.646;2023-05-14T09:14:21;25.2;43.9
79187;SHT31;68762;51.980;5.646;2023-05-14T09:16:50;25.2;44.3
79187;SHT31;68762;51.980;5.646;2023-05-14T09:19:20;25.2;44.7
79187;SHT31;68762;51.980;5.646;2023-05-14T09:21:49;25.1;46.0
79187;SHT31;68762;51.980;5.646;2023-05-14T09:24:22;25.1;45.0
79187;SHT31;68762;51.980;5.646;2023-05-14T09:26:52;25.1;44.4
79187;SHT31;68762;51.980;5.646;2023-05-14T09:29:23;25.1;45.1
79187;SHT31;68762;51.980;5.646;2023-05-14T09:31:52;25.1;44.8
79187;SHT31;68762;51.980;5.646;2023-05-14T09:34:25;25.1;45.0
79187;SHT31;68762;51.980;5.646;2023-05-14T09:36:58;25.2;44.2
79187;SHT31;68762;51.980;5.646;2023-05-14T09:39:28;25.2;42.2
79187;SHT31;68762;51.980;5.646;2023-05-14T09:41:57;25.2;41.3
79187;SHT31;68762;51.980;5.646;2023-05-14T09:44:26;25.3;41.6
79187;SHT31;68762;51.980;5.646;2023-05-14T09:46:55;25.4;44.0
79187;SHT31;68762;51.980;5.646;2023-05-14T09:49:23;25.5;43.7
79187;SHT31;68762;51.980;5.646;2023-05-14T09:51:52;25.6;44.3
79187;SHT31;68762;51.980;5.646;2023-05-14T09:54:23;25.7;40.9
79187;SHT31;68762;51.980;5.646;2023-05-14T09:56:52;25.8;40.9
79187;SHT31;68762;51.980;5.646;2023-05-14T09:59:21;25.9;42.3
79187;SHT31;68762;51.980;5.646;2023-05-14T10:01:50;26.0;41.2
79187;SHT31;68762;51.980;5.646;2023-05-14T10:04:20;26.1;41.4
79187;SHT31;68762;51.980;5.646;2023-05-14T10:06:50;26.2;42.4
79187;SHT31;68762;51.980;5.646;2023-05-14T10:09:21;26.3;42.2
79187;SHT31;68762;51.980;5.646;2023-05-14T10:11:52;26.4;41.5
79187;SHT31;68762;51.980;5.646;2023-05-14T10:14:26;26.5;40.5
79187;SHT31;68762;51.980;5.646;2023-05-14T10:16:58;26.5;42.0
79187;SHT31;68762;51.980;5.646;2023-05-14T10:19:32;26.6;41.4
79187;SHT31;68762;51.980;5.646;2023-05-14T10:22:04;26.6;40.6
79187;SHT31;68762;51.980;5.646;2023-05-14T10:24:35;26.6;40.5
79187;SHT31;68762;51.980;5.646;2023-05-14T10:27:06;26.7;40.8
79187;SHT31;68762;51.980;5.646;2023-05-14T10:29:36;26.7;41.6
79187;SHT31;68762;51.980;5.646;2023-05-14T10:32:06;26.8;40.5
79187;SHT31;68762;51.980;5.646;2023-05-14T10:34:37;26.8;40.7
79187;SHT31;68762;51.980;5.646;2023-05-14T10:37:09;26.9;40.4
79187;SHT31;68762;51.980;5.646;2023-05-14T10:39:45;26.9;40.6
79187;SHT31;68762;51.980;5.646;2023-05-14T10:42:16;27.0;39.3
79187;SHT31;68762;51.980;5.646;2023-05-14T10:44:52;27.0;39.7
79187;SHT31;68762;51.980;5.646;2023-05-14T10:47:22;27.1;39.8
79187;SHT31;68762;51.980;5.646;2023-05-14T10:49:53;27.1;38.2
79187;SHT31;68762;51.980;5.646;2023-05-14T10:52:24;27.1;38.9
79187;SHT31;68762;51.980;5.646;2023-05-14T10:54:55;27.1;39.2
79187;SHT31;68762;51.980;5.646;2023-05-14T10:57:26;27.1;38.2
79187;SHT31;68762;51.980;5.646;2023-05-14T10:59:57;27.1;37.7
79187;SHT31;68762;51.980;5.646;2023-05-14T11:02:28;27.1;39.6
79187;SHT31;68762;51.980;5.646;2023-05-14T11:04:59;27.1;40.5
79187;SHT31;68762;51.980;5.646;2023-05-14T11:07:31;27.1;39.0
79187;SHT31;68762;51.980;5.646;2023-05-14T11:10:02;27.1;40.3
79187;SHT31;68762;51.980;5.646;2023-05-14T11:12:32;27.2;38.8
79187;SHT31;68762;51.980;5.646;2023-05-14T11:15:03;27.2;40.0
79187;SHT31;68762;51.980;5.646;2023-05-14T11:17:34;27.2;38.4
79187;SHT31;68762;51.980;5.646;2023-05-14T11:20:06;27.3;36.9
79187;SHT31;68762;51.980;5.646;2023-05-14T11:22:36;27.3;38.2
79187;SHT31;68762;51.980;5.646;2023-05-14T11:25:07;27.3;35.8
79187;SHT31;68762;51.980;5.646;2023-05-14T11:27:37;27.3;35.7
79187;SHT31;68762;51.980;5.646;2023-05-14T11:30:11;27.3;35.2
79187;SHT31;68762;51.980;5.646;2023-05-14T11:32:41;27.3;34.2
79187;SHT31;68762;51.980;5.646;2023-05-14T11:35:11;27.4;34.0
79187;SHT31;68762;51.980;5.646;2023-05-14T11:37:40;27.4;34.8
79187;SHT31;68762;51.980;5.646;2023-05-14T11:40:16;27.4;36.4
79187;SHT31;68762;51.980;5.646;2023-05-14T11:42:45;27.4;36.6
79187;SHT31;68762;51.980;5.646;2023-05-14T11:45:25;27.4;36.8
79187;SHT31;68762;51.980;5.646;2023-05-14T11:47:56;27.4;37.5
79187;SHT31;68762;51.980;5.646;2023-05-14T11:50:27;27.3;39.4
79187;SHT31;68762;51.980;5.646;2023-05-14T11:52:57;27.3;38.3
79187;SHT31;68762;51.980;5.646;2023-05-14T11:55:25;27.2;37.0
79187;SHT31;68762;51.980;5.646;2023-05-14T11:57:55;27.2;37.6
79187;SHT31;68762;51.980;5.646;2023-05-14T12:00:25;27.1;38.0
79187;SHT31;68762;51.980;5.646;2023-05-14T12:02:53;27.1;38.8
79187;SHT31;68762;51.980;5.646;2023-05-14T12:05:22;27.0;37.4
79187;SHT31;68762;51.980;5.646;2023-05-14T12:07:51;27.0;37.2
79187;SHT31;68762;51.980;5.646;2023-05-14T12:10:21;26.9;36.0
79187;SHT31;68762;51.980;5.646;2023-05-14T12:12:50;26.9;36.1
79187;SHT31;68762;51.980;5.646;2023-05-14T12:15:19;26.8;37.4
79187;SHT31;68762;51.980;5.646;2023-05-14T12:17:51;26.7;37.9
79187;SHT31;68762;51.980;5.646;2023-05-14T12:20:20;26.7;39.5
79187;SHT31;68762;51.980;5.646;2023-05-14T12:22:51;26.7;39.0
79187;SHT31;68762;51.980;5.646;2023-05-14T12:25:20;26.7;39.7
79187;SHT31;68762;51.980;5.646;2023-05-14T12:27:48;26.7;39.4
79187;SHT31;68762;51.980;5.646;2023-05-14T12:30:17;26.7;40.2
79187;SHT31;68762;51.980;5.646;2023-05-14T12:32:45;26.7;38.7
79187;SHT31;68762;51.980;5.646;2023-05-14T12:35:16;26.8;36.8
79187;SHT31;68762;51.980;5.646;2023-05-14T12:37:45;26.8;38.4
79187;SHT31;68762;51.980;5.646;2023-05-14T12:40:14;26.9;39.3
79187;SHT31;68762;51.980;5.646;2023-05-14T12:42:42;27.0;41.2
79187;SHT31;68762;51.980;5.646;2023-05-14T12:45:11;27.0;38.4
79187;SHT31;68762;51.980;5.646;2023-05-14T12:47:39;27.1;38.7
79187;SHT31;68762;51.980;5.646;2023-05-14T12:50:10;27.1;36.8
79187;SHT31;68762;51.980;5.646;2023-05-14T12:52:41;27.1;36.9
79187;SHT31;68762;51.980;5.646;2023-05-14T12:55:11;27.1;36.5
79187;SHT31;68762;51.980;5.646;2023-05-14T12:57:47;27.1;38.7
79187;SHT31;68762;51.980;5.646;2023-05-14T13:00:16;27.0;38.5
79187;SHT31;68762;51.980;5.646;2023-05-14T13:02:45;27.0;37.3
79187;SHT31;68762;51.980;5.646;2023-05-14T13:05:15;27.0;36.4
79187;SHT31;68762;51.980;5.646;2023-05-14T13:07:44;27.0;38.4
79187;SHT31;68762;51.980;5.646;2023-05-14T13:10:14;26.9;35.5
79187;SHT31;68762;51.980;5.646;2023-05-14T13:12:44;26.9;34.8
79187;SHT31;68762;51.980;5.646;2023-05-14T13:15:14;26.9;37.9
79187;SHT31;68762;51.980;5.646;2023-05-14T13:17:43;26.9;36.0
79187;SHT31;68762;51.980;5.646;2023-05-14T13:20:12;26.9;37.1
79187;SHT31;68762;51.980;5.646;2023-05-14T13:22:40;26.9;38.1
79187;SHT31;68762;51.980;5.646;2023-05-14T13:25:09;26.8;37.5
79187;SHT31;68762;51.980;5.646;2023-05-14T13:27:38;26.8;40.1
79187;SHT31;68762;51.980;5.646;2023-05-14T13:30:07;26.8;37.0
79187;SHT31;68762;51.980;5.646;2023-05-14T13:32:35;26.8;39.0
79187;SHT31;68762;51.980;5.646;2023-05-14T13:35:04;26.8;39.6
79187;SHT31;68762;51.980;5.646;2023-05-14T13:37:33;26.8;36.1
79187;SHT31;68762;51.980;5.646;2023-05-14T13:40:02;26.9;37.0
79187;SHT31;68762;51.980;5.646;2023-05-14T13:42:33;26.9;37.3
79187;SHT31;68762;51.980;5.646;2023-05-14T13:45:02;26.9;37.0
79187;SHT31;68762;51.980;5.646;2023-05-14T13:47:31;26.9;35.9
79187;SHT31;68762;51.980;5.646;2023-05-14T13:50:00;26.9;37.8
79187;SHT31;68762;51.980;5.646;2023-05-14T13:52:29;26.9;38.5
79187;SHT31;68762;51.980;5.646;2023-05-14T13:54:57;26.9;37.8
79187;SHT31;68762;51.980;5.646;2023-05-14T13:57:26;26.9;36.2
79187;SHT31;68762;51.980;5.646;2023-05-14T13:59:56;26.9;37.3
79187;SHT31;68762;51.980;5.646;2023-05-14T14:02:25;26.9;37.8
79187;SHT31;68762;51.980;5.646;2023-05-14T14:04:53;26.9;38.2
79187;SHT31;68762;51.980;5.646;2023-05-14T14:07:22;26.9;35.6
79187;SHT31;68762;51.980;5.646;2023-05-14T14:09:51;26.9;36.1
79187;SHT31;68762;51.980;5.646;2023-05-14T14:12:19;26.9;36.8
79187;SHT31;68762;51.980;5.646;2023-05-14T14:14:48;26.9;34.9
79187;SHT31;68762;51.980;5.646;2023-05-14T14:17:18;26.9;35.2
79187;SHT31;68762;51.980;5.646;2023-05-14T14:19:46;26.9;34.3
79187;SHT31;68762;51.980;5.646;2023-05-14T14:22:15;26.8;36.3
79187;SHT31;68762;51.980;5.646;2023-05-14T14:24:44;26.8;36.7
79187;SHT31;68762;51.980;5.646;2023-05-14T14:27:12;26.8;35.2
79187;SHT31;68762;51.980;5.646;2023-05-14T14:29:41;26.8;35.6
79187;SHT31;68762;51.980;5.646;2023-05-14T14:32:11;26.8;35.7
79187;SHT31;68762;51.980;5.646;2023-05-14T14:34:40;26.8;36.6
79187;SHT31;68762;51.980;5.646;2023-05-14T14:37:08;26.7;35.9
79187;SHT31;68762;51.980;5.646;2023-05-14T14:39:39;26.7;37.1
79187;SHT31;68762;51.980;5.646;2023-05-14T14:42:07;26.7;37.5
79187;SHT31;68762;51.980;5.646;2023-05-14T14:44:36;26.6;37.6
79187;SHT31;68762;51.980;5.646;2023-05-14T14:47:05;26.6;35.0
79187;SHT31;68762;51.980;5.646;2023-05-14T14:49:33;26.5;36.9
79187;SHT31;68762;51.980;5.646;2023-05-14T14:52:02;26.5;36.9
79187;SHT31;68762;51.980;5.646;2023-05-14T14:54:30;26.5;38.0
79187;SHT31;68762;51.980;5.646;2023-05-14T14:56:59;26.4;39.1
79187;SHT31;68762;51.980;5.646;2023-05-14T14:59:29;26.4;37.9
79187;SHT31;68762;51.980;5.646;2023-05-14T15:01:58;26.3;38.2
79187;SHT31;68762;51.980;5.646;2023-05-14T15:04:26;26.3;39.8
79187;SHT31;68762;51.980;5.646;2023-05-14T15:06:58;26.3;41.4
79187;SHT31;68762;51.980;5.646;2023-05-14T15:09:26;26.2;40.2
79187;SHT31;68762;51.980;5.646;2023-05-14T15:11:55;26.2;41.7
79187;SHT31;68762;51.980;5.646;2023-05-14T15:14:24;26.2;39.5
79187;SHT31;68762;51.980;5.646;2023-05-14T15:16:53;26.2;39.3
79187;SHT31;68762;51.980;5.646;2023-05-14T15:19:22;26.1;39.2
79187;SHT31;68762;51.980;5.646;2023-05-14T15:21:50;26.1;40.6
79187;SHT31;68762;51.980;5.646;2023-05-14T15:24:19;26.1;40.2
79187;SHT31;68762;51.980;5.646;2023-05-14T15:26:49;26.0;39.4
79187;SHT31;68762;51.980;5.646;2023-05-14T15:29:17;26.0;39.9
79187;SHT31;68762;51.980;5.646;2023-05-14T15:31:46;25.9;40.6
79187;SHT31;68762;51.980;5.646;2023-05-14T15:34:15;25.8;41.4
79187;SHT31;68762;51.980;5.646;2023-05-14T15:36:43;25.8;41.9
79187;SHT31;68762;51.980;5.646;2023-05-14T15:39:12;25.7;41.2
79187;SHT31;68762;51.980;5.646;2023-05-14T15:41:40;25.6;40.0
79187;SHT31;68762;51.980;5.646;2023-05-14T15:44:09;25.6;41.4
79187;SHT31;68762;51.980;5.646;2023-05-14T15:46:39;25.5;40.7
79187;SHT31;68762;51.980;5.646;2023-05-14T15:49:10;25.4;40.5
79187;SHT31;68762;51.980;5.646;2023-05-14T15:51:38;25.4;41.2
79187;SHT31;68762;51.980;5.646;2023-05-14T15:54:07;25.3;41.5
79187;SHT31;68762;51.980;5.646;2023-05-14T15:56:36;25.3;41.3
79187;SHT31;68762;51.980;5.646;2023-05-14T15:59:04;25.2;41.6
79187;SHT31;68762;51.980;5.646;2023-05-14T16:01:33;25.2;42.0
79187;SHT31;68762;51.980;5.646;2023-05-14T16:04:01;25.1;42.6
79187;SHT31;68762;51.980;5.646;2023-05-14T16:06:30;25.1;42.8
79187;SHT31;68762;51.980;5.646;2023-05-14T16:08:59;25.1;42.3
79187;SHT31;68762;51.980;5.646;2023-05-14T16:11:28;25.0;42.9
79187;SHT31;68762;51.980;5.646;2023-05-14T16:13:57;25.0;43.2
79187;SHT31;68762;51.980;5.646;2023-05-14T16:16:26;24.9;43.5